首页
METAR-TAF:

METAR-TAF

机场 :

傑克遜維爾, 北卡罗来纳州, 美国

纬度: 34-42-21N, 经度: 077-26-27W, 海拔: 7米

当前天气观测

该预报发布于1小时和7分钟前的00:56 UTC
风速4节,风向
温度 11°C
湿度 58%
气压 1023 hPa
能見度: 16.1公里
天空无云

METAR: KNCA 220056Z AUTO 36004KT 10SM CLR 11/03 A3022 RMK AO2 SLP237 T01060028

时间: 22:03 (02:03 UTC)

预报

预报有效从20日的 21点(UTC)到 21日的 21点(UTC)
风速10节,风向西
能见度10公里或以上
少量云层高于2200英尺
多云层高于3000英尺
阴天层高于4100英尺
短暂存在
从 20日的 22点(UTC)到 21日的 00点(UTC)
风速15节,风向西
能見度: 6000
散云层高于1500英尺
多云层高于3000英尺
阴天层高于5000英尺
小阵雨, 轻雾
成为
从 21日的 00点(UTC)到 21日的 02点(UTC)
风速6节,风向北转西北
能见度10公里或以上
少量云层高于4000英尺
散云层高于10000英尺
从 21日的 0600点(UTC)
风速10节,风向北转西北,有时为25节阵风
能见度10公里或以上
天空无云

TAF: KNCA 2021/2121 27010KT 9999 FEW022 BKN030 OVC041 QNH2978INS TEMPO 2022/2100 28015KT 6000 -SHRA BR SCT015 BKN030 OVC050 BECMG 2100/2102 33006KT 9999 FEW040 SCT100 QNH2983INS FM210600 33010G25KT 9999 SKC QNH2990INS T24/2021Z T09/2112Z

超过4000个机场的气象观测和天气预报(METAR&TAF报告)。

可查询的气象台以黄色和红色小点在地图上表示。

将鼠标移到小点上方,可查看气象台名称。

然后点击查看天气观测和预报。

如需切换地图:点击带黑十字的绿色按钮放大地图;点击带横线的绿色按钮缩小地图;或者点击绿色箭头查看邻近地区的地图。


METAR-TAF: